createdAt,value
2018-02-03T00:01:35.259Z,6.93
2018-02-03T00:04:03.924Z,7.80
2018-02-03T00:06:33.326Z,6.87
2018-02-03T00:09:02.728Z,7.37
2018-02-03T00:11:32.155Z,6.87
2018-02-03T00:14:00.799Z,7.15
2018-02-03T00:16:29.460Z,6.78
2018-02-03T00:18:58.106Z,6.80
2018-02-03T00:21:27.567Z,6.37
2018-02-03T00:23:56.220Z,7.20
2018-02-03T00:26:24.861Z,7.40
2018-02-03T00:28:53.514Z,6.85
2018-02-03T00:31:22.151Z,7.55
2018-02-03T00:33:51.783Z,7.32
2018-02-03T00:36:20.426Z,7.60
2018-02-03T00:38:49.062Z,7.53
2018-02-03T00:41:17.719Z,7.45
2018-02-03T00:43:47.129Z,7.97
2018-02-03T00:46:15.786Z,7.20
2018-02-03T00:48:44.426Z,8.32
2018-02-03T00:51:13.079Z,7.57
2018-02-03T00:53:42.662Z,6.82
2018-02-03T00:56:12.123Z,8.27
2018-02-03T00:58:40.761Z,8.02
2018-02-03T01:01:09.399Z,7.50
2018-02-03T01:03:38.063Z,7.82
2018-02-03T01:06:06.696Z,8.25
2018-02-03T01:08:35.350Z,8.50
2018-02-03T01:11:04.009Z,8.60
2018-02-03T01:13:33.464Z,7.25
2018-02-03T01:16:02.107Z,8.55
2018-02-03T01:18:30.755Z,8.18
2018-02-03T01:20:59.406Z,8.25
2018-02-03T01:23:28.063Z,8.20
2018-02-03T01:25:57.499Z,8.40
2018-02-03T01:28:26.155Z,9.38
2018-02-03T01:30:54.819Z,7.95
2018-02-03T01:33:24.259Z,8.73
2018-02-03T01:35:52.923Z,8.60
2018-02-03T01:38:22.335Z,8.80
2018-02-03T01:40:50.982Z,8.82
2018-02-03T01:43:19.641Z,9.43
2018-02-03T01:45:48.300Z,9.32
2018-02-03T01:48:16.967Z,8.82
2018-02-03T01:50:46.389Z,8.75
2018-02-03T01:53:14.699Z,8.73
2018-02-03T01:55:43.392Z,8.80
2018-02-03T01:58:12.034Z,9.13
2018-02-03T02:00:40.370Z,9.02
2018-02-03T02:03:09.014Z,7.45
2018-02-03T02:05:37.703Z,9.45
2018-02-03T02:08:06.022Z,9.45
2018-02-03T02:10:34.667Z,8.38
2018-02-03T02:13:03.328Z,8.05
2018-02-03T02:15:32.423Z,8.80
2018-02-03T02:18:01.872Z,9.02
2018-02-03T02:20:30.531Z,9.50
2018-02-03T02:22:59.292Z,9.35
2018-02-03T02:25:28.715Z,8.10
2018-02-03T02:27:57.359Z,8.95
2018-02-03T02:30:26.027Z,8.38
2018-02-03T02:32:54.698Z,8.90
2018-02-03T02:35:23.379Z,9.27
2018-02-03T02:37:52.019Z,8.48
2018-02-03T02:40:20.678Z,8.95
2018-02-03T02:42:49.340Z,9.10
2018-02-03T02:45:18.005Z,9.07
2018-02-03T02:47:47.427Z,7.97
2018-02-03T02:50:15.416Z,9.15
2018-02-03T02:52:44.103Z,9.20
2018-02-03T02:55:12.760Z,9.00
2018-02-03T02:57:41.404Z,8.93
2018-02-03T03:00:09.732Z,8.27
2018-02-03T03:02:38.050Z,8.98
2018-02-03T03:05:06.727Z,8.82
2018-02-03T03:07:35.384Z,9.30
2018-02-03T03:10:04.047Z,8.23
2018-02-03T03:12:33.472Z,9.20
2018-02-03T03:15:01.464Z,9.52
2018-02-03T03:17:30.115Z,8.32
2018-02-03T03:19:58.795Z,9.00
2018-02-03T03:22:28.231Z,9.32
2018-02-03T03:24:56.883Z,9.82
2018-02-03T03:27:26.329Z,10.10
2018-02-03T03:29:54.986Z,9.00
2018-02-03T03:32:23.646Z,8.85
2018-02-03T03:34:53.087Z,9.23
2018-02-03T03:37:21.737Z,8.63
2018-02-03T03:39:51.172Z,9.23
2018-02-03T03:42:19.832Z,9.13
2018-02-03T03:44:49.275Z,8.95
2018-02-03T03:47:17.935Z,9.75
2018-02-03T03:49:46.588Z,10.20
2018-02-03T03:52:15.269Z,10.25
2018-02-03T03:54:43.935Z,9.65
2018-02-03T03:57:12.591Z,9.38
2018-02-03T03:59:41.247Z,10.75
2018-02-03T04:02:09.927Z,10.05
2018-02-03T04:04:38.575Z,9.20
2018-02-03T04:07:07.240Z,9.95
2018-02-03T04:09:35.904Z,9.50
2018-02-03T04:12:05.330Z,8.73
2018-02-03T04:14:34.004Z,10.13
2018-02-03T04:17:02.655Z,9.82
2018-02-03T04:19:31.331Z,9.52
2018-02-03T04:21:59.797Z,9.85
2018-02-03T04:24:27.796Z,10.68
2018-02-03T04:26:56.510Z,9.82
2018-02-03T04:29:25.928Z,9.73
2018-02-03T04:31:54.602Z,9.57
2018-02-03T04:34:24.028Z,10.45
2018-02-03T04:36:52.711Z,10.27
2018-02-03T04:39:21.371Z,9.95
2018-02-03T04:41:50.795Z,10.13
2018-02-03T04:44:19.467Z,10.82
2018-02-03T04:46:48.894Z,11.38
2018-02-03T04:49:17.570Z,10.68
2018-02-03T04:51:46.242Z,10.45
2018-02-03T04:54:15.691Z,12.00
2018-02-03T04:56:44.352Z,11.05
2018-02-03T04:59:13.020Z,12.55
2018-02-03T05:01:42.463Z,12.37
2018-02-03T05:04:11.131Z,10.73
2018-02-03T05:06:39.803Z,11.40
2018-02-03T05:09:09.234Z,10.98
2018-02-03T05:11:37.959Z,12.13
2018-02-03T05:14:06.616Z,10.00
2018-02-03T05:16:35.099Z,12.35
2018-02-03T05:19:03.793Z,12.18
2018-02-03T05:21:32.447Z,11.80
2018-02-03T05:24:01.111Z,11.75
2018-02-03T05:26:30.206Z,12.32
2018-02-03T05:28:58.983Z,12.75
2018-02-03T05:31:27.640Z,12.15
2018-02-03T05:33:56.299Z,11.27
2018-02-03T05:36:24.976Z,11.95
2018-02-03T05:38:53.446Z,12.35
2018-02-03T05:41:22.885Z,12.20
2018-02-03T05:43:51.351Z,13.10
2018-02-03T05:46:19.848Z,13.23
2018-02-03T05:48:48.319Z,13.27
2018-02-03T05:51:16.973Z,12.40
2018-02-03T05:53:46.418Z,11.75
2018-02-03T05:56:14.900Z,11.02
2018-02-03T05:58:43.575Z,13.25
2018-02-03T06:01:12.251Z,12.60
2018-02-03T06:03:40.935Z,13.10
2018-02-03T06:06:10.371Z,12.88
2018-02-03T06:08:39.039Z,12.57
2018-02-03T06:11:07.715Z,13.80
2018-02-03T06:13:36.982Z,14.43
2018-02-03T06:16:05.330Z,12.98
2018-02-03T06:18:34.000Z,14.27
2018-02-03T06:21:02.680Z,12.20
2018-02-03T06:23:31.019Z,13.85
2018-02-03T06:25:59.686Z,13.02
2018-02-03T06:28:28.359Z,13.40
2018-02-03T06:30:57.013Z,15.10
2018-02-03T06:33:25.691Z,14.27
2018-02-03T06:35:54.360Z,13.23
2018-02-03T06:38:23.628Z,12.93
2018-02-03T06:40:52.286Z,12.98
2018-02-03T06:43:20.943Z,14.65
2018-02-03T06:45:50.378Z,13.13
2018-02-03T06:48:19.034Z,12.82
2018-02-03T06:50:48.480Z,13.43
2018-02-03T06:53:17.134Z,14.30
2018-02-03T06:55:45.166Z,12.93
2018-02-03T06:58:14.263Z,13.13
2018-02-03T07:00:42.922Z,14.65
2018-02-03T07:03:11.595Z,14.52
2018-02-03T07:05:40.264Z,14.40
2018-02-03T07:08:08.962Z,14.80
2018-02-03T07:10:38.564Z,14.57
2018-02-03T07:13:07.251Z,16.00
2018-02-03T07:15:35.419Z,14.43
2018-02-03T07:18:04.651Z,15.35
2018-02-03T07:20:33.142Z,14.50
2018-02-03T07:23:01.820Z,14.30
2018-02-03T07:25:29.971Z,14.60
2018-02-03T07:27:58.638Z,15.82
2018-02-03T07:30:27.940Z,14.55
2018-02-03T07:32:57.047Z,14.40
2018-02-03T07:35:25.766Z,13.95
2018-02-03T07:37:54.455Z,11.82
2018-02-03T07:40:23.878Z,18.85
2018-02-03T07:42:52.543Z,15.73
2018-02-03T07:45:21.289Z,16.20
2018-02-03T07:47:52.543Z,14.43
2018-02-03T07:50:22.554Z,14.45
2018-02-03T07:52:52.040Z,13.88
2018-02-03T07:55:20.723Z,13.38
2018-02-03T07:57:49.404Z,14.90
2018-02-03T08:00:17.740Z,15.73
2018-02-03T08:02:46.396Z,13.73
2018-02-03T08:05:15.834Z,13.68
2018-02-03T08:07:44.499Z,13.48
2018-02-03T08:10:13.180Z,14.40
2018-02-03T08:12:41.839Z,14.85
2018-02-03T08:15:10.518Z,13.95
2018-02-03T08:17:39.199Z,15.77
2018-02-03T08:20:08.477Z,15.40
2018-02-03T08:22:37.599Z,13.52
2018-02-03T08:25:06.263Z,13.30
2018-02-03T08:27:35.314Z,14.05
2018-02-03T08:30:04.405Z,12.10
2018-02-03T08:32:33.848Z,13.07
2018-02-03T08:35:02.532Z,13.05
2018-02-03T08:37:31.190Z,11.88
2018-02-03T08:40:00.630Z,12.23
2018-02-03T08:42:29.099Z,11.50
2018-02-03T08:44:57.129Z,14.82
2018-02-03T08:47:25.987Z,13.07
2018-02-03T08:49:54.655Z,18.70
2018-02-03T08:52:23.059Z,25.35
2018-02-03T08:54:51.719Z,12.70
2018-02-03T08:57:20.408Z,12.57
2018-02-03T08:59:49.080Z,13.50
2018-02-03T09:02:17.779Z,13.88
2018-02-03T09:04:46.475Z,14.40
2018-02-03T09:07:15.153Z,13.90
2018-02-03T09:09:43.831Z,14.00
2018-02-03T09:12:11.833Z,14.77
2018-02-03T09:14:41.302Z,12.80
2018-02-03T09:17:09.969Z,12.30
2018-02-03T09:19:40.271Z,12.57
2018-02-03T09:22:08.930Z,13.70
2018-02-03T09:24:37.592Z,12.77
2018-02-03T09:27:06.259Z,11.10
2018-02-03T09:29:35.739Z,11.90
2018-02-03T09:32:04.412Z,12.30
2018-02-03T09:34:32.940Z,11.65
2018-02-03T09:37:02.382Z,12.05
2018-02-03T09:39:31.127Z,10.75
2018-02-03T09:42:00.232Z,12.25
2018-02-03T09:44:28.915Z,12.48
2018-02-03T09:46:57.684Z,12.02
2018-02-03T09:49:26.385Z,11.00
2018-02-03T09:51:55.815Z,12.57
2018-02-03T09:54:24.285Z,12.07
2018-02-03T09:56:52.976Z,11.68
2018-02-03T09:59:21.671Z,11.65
2018-02-03T10:01:50.181Z,11.65
2018-02-03T10:04:18.845Z,11.05
2018-02-03T10:06:48.295Z,12.10
2018-02-03T10:09:16.998Z,12.43
2018-02-03T10:11:45.831Z,10.40
2018-02-03T10:14:14.506Z,10.65
2018-02-03T10:16:43.171Z,11.20
2018-02-03T10:19:12.644Z,10.95
2018-02-03T10:21:41.323Z,10.15
2018-02-03T10:24:10.011Z,10.18
2018-02-03T10:26:38.701Z,11.60
2018-02-03T10:29:07.535Z,13.13
2018-02-03T10:31:36.953Z,9.10
2018-02-03T10:34:05.605Z,9.73
2018-02-03T10:36:34.275Z,7.45
2018-02-03T10:39:02.601Z,8.02
2018-02-03T10:41:31.279Z,8.43
2018-02-03T10:44:00.694Z,6.87
2018-02-03T10:46:29.344Z,7.90
2018-02-03T10:49:02.043Z,7.25
2018-02-03T10:51:31.460Z,7.43
2018-02-03T10:54:04.108Z,7.18
2018-02-03T10:59:36.251Z,7.78
2018-02-03T11:02:04.897Z,6.65
2018-02-03T11:04:36.399Z,8.35
2018-02-03T11:07:05.071Z,6.68
2018-02-03T11:09:33.727Z,6.60
2018-02-03T11:12:03.172Z,7.05
2018-02-03T11:14:31.823Z,7.60
2018-02-03T11:17:01.069Z,8.07
2018-02-03T11:19:29.864Z,8.70
2018-02-03T11:21:58.238Z,8.63
2018-02-03T11:24:26.906Z,7.57
2018-02-03T11:26:55.558Z,7.62
2018-02-03T11:29:25.011Z,8.05
2018-02-03T11:31:53.676Z,8.05
2018-02-03T11:34:22.359Z,7.90
2018-02-03T11:36:50.835Z,8.85
2018-02-03T11:39:19.498Z,9.30
2018-02-03T11:41:48.944Z,9.45
2018-02-03T11:44:17.608Z,8.95
2018-02-03T11:46:46.289Z,8.90
2018-02-03T11:49:15.740Z,9.05
2018-02-03T11:51:44.446Z,11.10
2018-02-03T11:54:13.119Z,18.33
2018-02-03T11:56:41.795Z,15.27
2018-02-03T11:59:10.469Z,9.90
2018-02-03T12:01:39.159Z,10.07
2018-02-03T12:04:07.847Z,10.05
2018-02-03T12:06:36.527Z,10.43
2018-02-03T12:09:04.554Z,10.55
2018-02-03T12:11:33.452Z,11.00
2018-02-03T12:14:02.891Z,11.52
2018-02-03T12:16:31.583Z,12.45
2018-02-03T12:19:00.243Z,10.65
2018-02-03T12:21:31.050Z,9.82
2018-02-03T12:23:59.867Z,11.35
2018-02-03T12:26:28.588Z,11.23
2018-02-03T12:28:59.143Z,10.05
2018-02-03T12:31:28.395Z,11.68
2018-02-03T12:33:57.630Z,9.85
2018-02-03T12:36:27.087Z,9.52
2018-02-03T12:38:57.304Z,9.20
2018-02-03T12:41:26.762Z,8.10
2018-02-03T12:43:55.431Z,8.68
2018-02-03T12:46:24.134Z,8.40
2018-02-03T12:48:53.560Z,10.85
2018-02-03T12:51:22.255Z,10.75
2018-02-03T12:53:50.968Z,10.40
2018-02-03T12:56:20.653Z,9.38
2018-02-03T12:58:49.320Z,9.40
2018-02-03T13:01:17.995Z,9.13
2018-02-03T13:03:47.297Z,10.00
2018-02-03T13:06:15.975Z,11.27
2018-02-03T13:08:44.650Z,10.70
2018-02-03T13:11:13.331Z,10.25
2018-02-03T13:13:42.519Z,10.50
2018-02-03T13:16:11.194Z,11.00
2018-02-03T13:18:40.169Z,10.70
2018-02-03T13:21:08.832Z,10.73
2018-02-03T13:23:37.496Z,10.60
2018-02-03T13:26:06.171Z,11.27
2018-02-03T13:28:34.835Z,11.88
2018-02-03T13:31:04.295Z,11.25
2018-02-03T13:33:33.047Z,10.90
2018-02-03T13:36:01.805Z,11.18
2018-02-03T13:38:31.088Z,11.93
2018-02-03T13:40:59.775Z,11.95
